Running 2 Win

General forum

Log in first log in to submit a post
Latest postsPosts Viewed Thread Starter Last Post
Help us out! What do you want to see on running2win? 605 28653 mustrider262 02/16/19 08:01:38 PM
Being able to search runners 2 153 xcwarrior 10/22/18 09:30:11 AM
Various Suggestions/Issues 8 416 rknutsonratto 01/18/18 08:17:10 AM
Forgotten username 4 545 ktgoodman18 07/05/17 06:39:32 PM
Workout planner 3 640 Wmclemore 10/06/16 08:54:42 AM
Privacy Setting 0 461 MAC17 12/22/15 08:43:11 PM
Editing Shoes 3 669 laurenwashere 08/01/15 01:59:25 AM
Training log in minutes 10 1208 Coachmhmiller 06/30/15 03:55:30 PM
0 679 Deleted Member 12/06/14 07:05:48 PM
0 475 Deleted Member 12/04/14 10:22:42 PM
And 3 months later.... no app... 5 1061 Steeple_Chase14 08/07/14 10:10:55 AM
PR tracker 3 950 Dkal 01/19/14 11:07:01 AM
default shoe 3 967 BenHereRunThat 12/29/13 02:51:40 PM
How do I compose an r-mail? 5 1140 coachwaters 05/15/13 06:31:21 PM
this would help me out a lot 8 1880 SpeedyGonzo 03/14/13 08:02:27 PM
vertical gain 2 955 GuyLove 01/28/13 12:29:46 PM
Suggestions 2 1115 BrianGibb 11/21/11 06:32:16 AM
Routes and R-Maps 2 1225 RubyRunner 09/01/11 01:38:21 PM
Import from logyourrun.com 2 1437 dan_sheldon 08/17/11 04:02:36 PM
Can you change your username? 9 1718 Rieskamp.js 08/07/11 10:29:09 PM
approximate button 4 1193 mjohnson622 01/25/11 09:38:58 PM
Excel Export 13 2326 smilingassassin 12/23/10 10:12:11 PM
How do you search for people? 9 1866 xcwarrior 11/24/10 12:43:35 PM
Hoya - ever pull community stats? 8 1425 LittleRunnerMan 09/11/10 07:16:54 AM
food diary 6 1735 repair314 06/09/10 11:48:37 AM
We need a search function 12 1401 Minus 06/05/10 03:06:35 PM
Lieing for the top 20 list. 43 3511 13gentj 05/17/10 08:39:48 PM
Multiple Shoe Selection 2 1412 RunSoupRun 05/14/10 12:52:21 PM
Running2win iPhone app??? 41 4084 bussell 03/15/10 11:45:01 PM
Twitter 6 1582 vikchic 02/14/10 10:28:39 PM
Troll blocker 12 1736 JogAddict 02/03/10 12:02:00 AM
Auto login / "Remember Me" feature 6 1726 carrth 09/23/09 12:24:07 PM
printing my log 3 1311 madamelaura 09/12/09 10:55:29 PM
Warm-up/Cool-down Slots in workouts 4 1304 gingerkid101 05/21/09 02:07:47 PM
Please add "Sleet" 4 1376 isitsafe? 11/09/08 11:47:27 PM
hall of fame 3 1379 jellyman33 11/01/08 11:33:26 PM
Please add "Clear" 6 1565 isitsafe? 10/31/08 04:29:11 PM
Cross Training 14 2323 Fuser 08/30/08 06:58:26 PM
Weather conditions 23 1904 xcwarrior 08/29/08 02:20:53 PM
Team Forums 4 1499 running is fun 08/08/08 11:50:30 AM
replying to your own forum post 4 1542 D-Block 08/01/08 09:44:46 AM
'friends' search 5 1663 donmurf 07/14/08 03:42:08 PM
Hall of Fame 9 1872 archdeacon 06/24/08 04:39:13 PM
graphs 3 1340 jellyman33 06/22/08 09:59:53 PM
Deleting a workout 3 1830 FXRGUY 06/17/08 05:09:29 PM
Charts and Graphs 7 1440 Thrasymachus 06/06/08 10:59:51 AM
Goals and r2w 6 1659 JayHurley 05/27/08 12:29:28 AM
log import 5 2148 rickysilk 05/25/08 10:50:31 AM
Planned Training? 2 1434 ultrailz 05/23/08 12:39:44 AM
Question - recording run vs walk 2 1375 svanklink 04/21/08 05:43:44 PM
Any forums for ultrarunning? 1 1333 dawgblood 03/09/08 09:40:50 PM
Default Workout or Copy Workout 2 1304 isitsafe? 03/07/08 12:15:02 PM
UPDATE: Copy previous runs! 5 1928 mustrider262 03/07/08 10:35:37 AM
Pacing Numbers 2 1316 jesseromain 03/02/08 04:56:55 AM
2 ideas 1 1298 gtruskowski 01/24/08 06:26:11 PM
Start of training week 3 1677 pointzone 01/21/08 06:01:43 PM
Public log viewing options 3 1397 mrsuresh 01/20/08 11:01:21 PM
Two suggestions/ideas 13 1762 xcwarrior 01/09/08 05:54:07 PM
Team page 16 3028 dbhc8996 01/09/08 09:19:01 AM
My Races or Races 2 1590 Graybeard 01/04/08 12:33:05 AM
pace for swim 4 1320 gcw0001 01/02/08 03:42:30 PM
Team Exclusivity 10 2057 Showtime 12/31/07 01:23:05 AM
top 20 with ties in 7 days 5 1462 TonkaTruck 12/29/07 11:44:21 AM
Stock and Running2Win 1 1469 boro08 12/24/07 12:58:22 PM
Recreational Runner Forum 2 1393 terrilyn_2000 12/23/07 08:42:46 PM
Race Data Entry 4 1337 jgordon 12/22/07 11:22:44 PM
Pace Data Displayed in More Places 2 1366 jgordon 12/19/07 01:16:01 AM
Max HR Field 2 1376 jgordon 12/17/07 11:11:37 PM
GOALS 4 1617 jstoeffler 12/14/07 05:17:47 PM
Keep me logged in 4 1476 audi 12/14/07 04:14:12 PM
Summary Page? 1 1253 r2web 11/26/07 10:28:53 AM
Cloudy 2 1287 Jared 09/09/07 09:20:28 PM
Search capability? Polar import ? 3 1559 conrad 08/10/07 04:20:13 AM
Team Log Info 3 1508 runlewisrun 08/06/07 09:30:39 PM
Time of Day: Night 14 1714 speedyjewelz 07/27/07 09:09:41 PM
default time of day for run 8 1582 Keith Schueller 07/20/07 04:28:18 PM
Viewing your mileage 7 1721 benfisher10 07/10/07 11:16:53 AM
Dummy accounts 8 1981 xcwarrior 06/22/07 12:35:38 AM
This Site 8 1700 FPJay 05/31/07 12:33:45 PM
Losing Workouts 5 1734 benfisher10 05/21/07 02:04:35 PM
shorts 5 2405 jellyman33 05/19/07 03:54:37 PM
Timed runs 2 1441 CrippyRunner 04/04/07 08:27:20 AM
For the ladies... 4 1827 Sarah 12/29/06 12:22:04 AM
Race Predicition Calculator 6 2633 r2web 12/26/06 06:57:29 PM
Firefox 3 1576 colinmadbeast 11/09/06 02:22:21 PM
Cross Training? 4 1597 JThackery 10/27/06 12:44:23 PM
Picking Shoes 4 1706 klunn 10/16/06 09:17:51 PM
"Special Runs"? 3 1449 mcmiler436 09/29/06 11:53:47 AM
Team Notes New! 2 1694 Hoya 01/16/06 09:10:57 PM
Editing/Deleting Posts 10 1954 Showtime 12/01/05 08:45:26 PM
Race Comments 2 1688 Showtime 11/13/05 10:35:15 AM
spikes, shoes and food 16 2107 Eby 07/04/05 11:24:03 PM
time zones... 3 1632 dgilly 06/27/05 07:37:26 AM
off to the races? 4 1600 dgilly 06/25/05 08:22:39 PM
run time 2 1837 No Name 03/22/05 11:33:52 PM
Date on Forum.. 2 1756 Barto 02/28/05 07:37:48 PM
LOG BOOK 4 1910 ssshhh 12/30/04 07:54:52 AM
New Log Book Page 3 1748 Hoya 11/13/04 07:32:34 PM
New Daily Calories Burned Calculator up! 1 1710 Calculator Man 10/09/04 10:58:59 AM
UPDATE: Clicking graph bars are now working! 1 1891 Hoya 09/11/04 02:42:31 AM
UPDATE: Edit existing activities! 1 1587 mustrider262 09/10/04 09:25:32 AM
 
  back to forum list
 

Jump to the following forum: